Onlinedag 1/10

<< < (5/8) > >>

ekepeke:
Nice!

Eddieboy:
Quote

Dan ta det lungt med mej, gör en pilot check med MD-82 Roligt att du Eddie flyger mot ESMQ, där är nästan aldrig nån trafik! Jag hoppas att ESOS kommer upp trots att nån tagit ESMM.

Ja för man vill ju ha ATC hela vägen.

alxXx:
ESOS, SA_APP, SA_TWR och GG_TWR online nu! 

Eldano:
Då var även ESGG_APP online,

Kom å flyg! 

Maax:
Ruskigt trevligt flygväder uppe i norr!



ESNS 011720Z VRB01KT 0250 R10/0800N R28/0600N FG VV000 10/09 Q1017

 

Navigation

Up one level

Next page

Previous page